sensor_id;sensor_type;location;lat;lon;timestamp;P1;durP1;ratioP1;P2;durP2;ratioP2
59788;SDS011;47353;51.614;5.530;2023-06-22T00:02:08;10.07;;;7.95;;
59788;SDS011;47353;51.614;5.530;2023-06-22T00:04:33;11.02;;;7.65;;
59788;SDS011;47353;51.614;5.530;2023-06-22T00:06:59;9.43;;;7.60;;
59788;SDS011;47353;51.614;5.530;2023-06-22T00:09:24;8.95;;;7.82;;
59788;SDS011;47353;51.614;5.530;2023-06-22T00:11:49;9.10;;;7.43;;
59788;SDS011;47353;51.614;5.530;2023-06-22T00:14:15;10.10;;;8.13;;
59788;SDS011;47353;51.614;5.530;2023-06-22T00:16:40;10.95;;;9.07;;
59788;SDS011;47353;51.614;5.530;2023-06-22T00:19:07;11.05;;;8.23;;
59788;SDS011;47353;51.614;5.530;2023-06-22T00:21:35;11.85;;;7.95;;
59788;SDS011;47353;51.614;5.530;2023-06-22T00:24:02;10.77;;;7.85;;
59788;SDS011;47353;51.614;5.530;2023-06-22T00:26:28;9.52;;;8.52;;
59788;SDS011;47353;51.614;5.530;2023-06-22T00:28:53;11.90;;;8.45;;
59788;SDS011;47353;51.614;5.530;2023-06-22T00:31:18;10.02;;;8.52;;
59788;SDS011;47353;51.614;5.530;2023-06-22T00:33:44;11.07;;;8.52;;
59788;SDS011;47353;51.614;5.530;2023-06-22T00:36:09;13.73;;;9.13;;
59788;SDS011;47353;51.614;5.530;2023-06-22T00:38:38;14.10;;;8.88;;
59788;SDS011;47353;51.614;5.530;2023-06-22T00:41:05;11.57;;;8.38;;
59788;SDS011;47353;51.614;5.530;2023-06-22T00:43:30;11.20;;;9.23;;
59788;SDS011;47353;51.614;5.530;2023-06-22T00:45:56;9.75;;;8.85;;
59788;SDS011;47353;51.614;5.530;2023-06-22T00:48:21;11.35;;;9.27;;
59788;SDS011;47353;51.614;5.530;2023-06-22T00:50:47;10.30;;;8.88;;
59788;SDS011;47353;51.614;5.530;2023-06-22T00:53:15;13.23;;;9.07;;
59788;SDS011;47353;51.614;5.530;2023-06-22T00:55:42;12.10;;;9.48;;
59788;SDS011;47353;51.614;5.530;2023-06-22T00:58:10;13.02;;;9.68;;
59788;SDS011;47353;51.614;5.530;2023-06-22T01:00:37;10.32;;;9.10;;
59788;SDS011;47353;51.614;5.530;2023-06-22T01:03:04;11.15;;;9.20;;
59788;SDS011;47353;51.614;5.530;2023-06-22T01:05:31;10.63;;;9.20;;
59788;SDS011;47353;51.614;5.530;2023-06-22T01:18:29;12.93;;;10.52;;
59788;SDS011;47353;51.614;5.530;2023-06-22T01:20:56;12.00;;;10.27;;
59788;SDS011;47353;51.614;5.530;2023-06-22T01:23:33;11.95;;;10.40;;
59788;SDS011;47353;51.614;5.530;2023-06-22T01:29:07;12.45;;;10.48;;
59788;SDS011;47353;51.614;5.530;2023-06-22T01:31:37;13.43;;;10.50;;
59788;SDS011;47353;51.614;5.530;2023-06-22T01:34:06;12.27;;;10.57;;
59788;SDS011;47353;51.614;5.530;2023-06-22T01:36:33;11.88;;;10.45;;
59788;SDS011;47353;51.614;5.530;2023-06-22T01:38:59;14.73;;;11.07;;
59788;SDS011;47353;51.614;5.530;2023-06-22T01:41:26;13.27;;;10.85;;
59788;SDS011;47353;51.614;5.530;2023-06-22T01:43:54;12.82;;;10.93;;
59788;SDS011;47353;51.614;5.530;2023-06-22T01:46:20;13.02;;;10.80;;
59788;SDS011;47353;51.614;5.530;2023-06-22T01:48:46;12.63;;;10.70;;
59788;SDS011;47353;51.614;5.530;2023-06-22T01:51:12;16.10;;;11.38;;
59788;SDS011;47353;51.614;5.530;2023-06-22T01:53:38;13.95;;;11.52;;
59788;SDS011;47353;51.614;5.530;2023-06-22T01:56:04;13.50;;;10.63;;
59788;SDS011;47353;51.614;5.530;2023-06-22T01:58:29;14.45;;;11.90;;
59788;SDS011;47353;51.614;5.530;2023-06-22T02:00:58;12.60;;;10.95;;
59788;SDS011;47353;51.614;5.530;2023-06-22T02:03:34;13.73;;;11.05;;
59788;SDS011;47353;51.614;5.530;2023-06-22T02:06:05;14.10;;;11.20;;
59788;SDS011;47353;51.614;5.530;2023-06-22T02:08:46;20.45;;;11.82;;
59788;SDS011;47353;51.614;5.530;2023-06-22T02:11:14;12.88;;;11.45;;
59788;SDS011;47353;51.614;5.530;2023-06-22T02:13:43;14.05;;;11.20;;
59788;SDS011;47353;51.614;5.530;2023-06-22T02:16:10;13.25;;;11.40;;
59788;SDS011;47353;51.614;5.530;2023-06-22T02:18:37;13.35;;;11.52;;
59788;SDS011;47353;51.614;5.530;2023-06-22T02:21:02;13.73;;;11.32;;
59788;SDS011;47353;51.614;5.530;2023-06-22T02:23:28;14.65;;;11.93;;
59788;SDS011;47353;51.614;5.530;2023-06-22T02:25:53;14.57;;;11.60;;
59788;SDS011;47353;51.614;5.530;2023-06-22T02:28:19;15.32;;;12.50;;
59788;SDS011;47353;51.614;5.530;2023-06-22T02:30:44;14.27;;;11.98;;
59788;SDS011;47353;51.614;5.530;2023-06-22T02:33:09;14.18;;;12.10;;
59788;SDS011;47353;51.614;5.530;2023-06-22T02:35:35;18.35;;;12.30;;
59788;SDS011;47353;51.614;5.530;2023-06-22T02:38:01;15.02;;;11.80;;
59788;SDS011;47353;51.614;5.530;2023-06-22T02:40:28;14.90;;;12.35;;
59788;SDS011;47353;51.614;5.530;2023-06-22T02:42:54;14.30;;;12.15;;
59788;SDS011;47353;51.614;5.530;2023-06-22T02:45:20;15.40;;;11.95;;
59788;SDS011;47353;51.614;5.530;2023-06-22T02:47:45;13.48;;;11.85;;
59788;SDS011;47353;51.614;5.530;2023-06-22T02:50:12;16.90;;;12.45;;
59788;SDS011;47353;51.614;5.530;2023-06-22T02:52:38;14.35;;;11.20;;
59788;SDS011;47353;51.614;5.530;2023-06-22T02:55:04;17.80;;;12.05;;
59788;SDS011;47353;51.614;5.530;2023-06-22T02:57:30;14.82;;;12.32;;
59788;SDS011;47353;51.614;5.530;2023-06-22T02:59:56;15.80;;;12.23;;
59788;SDS011;47353;51.614;5.530;2023-06-22T03:02:21;14.93;;;12.88;;
59788;SDS011;47353;51.614;5.530;2023-06-22T03:04:47;17.10;;;12.27;;
59788;SDS011;47353;51.614;5.530;2023-06-22T03:07:14;15.05;;;12.15;;
59788;SDS011;47353;51.614;5.530;2023-06-22T03:09:39;17.55;;;12.68;;
59788;SDS011;47353;51.614;5.530;2023-06-22T03:12:07;18.33;;;12.65;;
59788;SDS011;47353;51.614;5.530;2023-06-22T03:14:33;17.10;;;12.63;;
59788;SDS011;47353;51.614;5.530;2023-06-22T03:16:58;23.27;;;13.20;;
59788;SDS011;47353;51.614;5.530;2023-06-22T03:19:28;17.85;;;12.88;;
59788;SDS011;47353;51.614;5.530;2023-06-22T03:21:54;18.50;;;13.48;;
59788;SDS011;47353;51.614;5.530;2023-06-22T03:24:20;13.98;;;12.10;;
59788;SDS011;47353;51.614;5.530;2023-06-22T03:26:45;17.77;;;12.82;;
59788;SDS011;47353;51.614;5.530;2023-06-22T03:29:11;15.35;;;12.70;;
59788;SDS011;47353;51.614;5.530;2023-06-22T03:31:37;16.73;;;13.13;;
59788;SDS011;47353;51.614;5.530;2023-06-22T03:34:02;17.38;;;13.60;;
59788;SDS011;47353;51.614;5.530;2023-06-22T03:36:28;18.00;;;13.05;;
59788;SDS011;47353;51.614;5.530;2023-06-22T03:38:53;17.75;;;12.98;;
59788;SDS011;47353;51.614;5.530;2023-06-22T03:41:19;16.02;;;12.13;;
59788;SDS011;47353;51.614;5.530;2023-06-22T03:43:44;17.52;;;12.82;;
59788;SDS011;47353;51.614;5.530;2023-06-22T03:46:09;16.20;;;12.85;;
59788;SDS011;47353;51.614;5.530;2023-06-22T03:48:35;17.88;;;13.60;;
59788;SDS011;47353;51.614;5.530;2023-06-22T03:51:00;17.63;;;13.63;;
59788;SDS011;47353;51.614;5.530;2023-06-22T03:53:26;18.20;;;13.70;;
59788;SDS011;47353;51.614;5.530;2023-06-22T03:55:52;18.10;;;13.70;;
59788;SDS011;47353;51.614;5.530;2023-06-22T03:58:18;17.13;;;13.85;;
59788;SDS011;47353;51.614;5.530;2023-06-22T04:00:49;15.63;;;13.45;;
59788;SDS011;47353;51.614;5.530;2023-06-22T04:03:17;18.40;;;13.68;;
59788;SDS011;47353;51.614;5.530;2023-06-22T04:05:46;19.25;;;13.63;;
59788;SDS011;47353;51.614;5.530;2023-06-22T04:08:12;16.30;;;13.80;;
59788;SDS011;47353;51.614;5.530;2023-06-22T04:10:39;19.10;;;13.52;;
59788;SDS011;47353;51.614;5.530;2023-06-22T04:13:04;18.80;;;13.68;;
59788;SDS011;47353;51.614;5.530;2023-06-22T04:15:29;16.75;;;14.32;;
59788;SDS011;47353;51.614;5.530;2023-06-22T04:17:55;19.08;;;14.00;;
59788;SDS011;47353;51.614;5.530;2023-06-22T04:20:21;18.33;;;13.88;;
59788;SDS011;47353;51.614;5.530;2023-06-22T04:22:47;17.95;;;13.65;;
59788;SDS011;47353;51.614;5.530;2023-06-22T04:25:12;17.65;;;14.02;;
59788;SDS011;47353;51.614;5.530;2023-06-22T04:27:38;19.63;;;14.45;;
59788;SDS011;47353;51.614;5.530;2023-06-22T04:30:05;19.45;;;13.85;;
59788;SDS011;47353;51.614;5.530;2023-06-22T04:32:32;20.48;;;14.02;;
59788;SDS011;47353;51.614;5.530;2023-06-22T04:35:01;21.23;;;14.27;;
59788;SDS011;47353;51.614;5.530;2023-06-22T04:37:31;19.73;;;14.77;;
59788;SDS011;47353;51.614;5.530;2023-06-22T04:39:57;19.63;;;15.02;;
59788;SDS011;47353;51.614;5.530;2023-06-22T04:42:22;20.55;;;15.43;;
59788;SDS011;47353;51.614;5.530;2023-06-22T04:44:47;18.00;;;14.45;;
59788;SDS011;47353;51.614;5.530;2023-06-22T04:47:13;18.38;;;14.32;;
59788;SDS011;47353;51.614;5.530;2023-06-22T04:49:38;19.10;;;15.20;;
59788;SDS011;47353;51.614;5.530;2023-06-22T04:54:31;20.25;;;14.90;;
59788;SDS011;47353;51.614;5.530;2023-06-22T04:56:58;20.02;;;16.02;;
59788;SDS011;47353;51.614;5.530;2023-06-22T04:59:24;20.17;;;15.38;;
59788;SDS011;47353;51.614;5.530;2023-06-22T05:01:53;21.60;;;15.40;;
59788;SDS011;47353;51.614;5.530;2023-06-22T05:04:23;21.58;;;16.02;;
59788;SDS011;47353;51.614;5.530;2023-06-22T05:06:49;21.27;;;15.23;;
59788;SDS011;47353;51.614;5.530;2023-06-22T05:09:15;20.67;;;16.00;;
59788;SDS011;47353;51.614;5.530;2023-06-22T05:11:42;19.90;;;16.15;;
59788;SDS011;47353;51.614;5.530;2023-06-22T05:14:07;18.45;;;15.57;;
59788;SDS011;47353;51.614;5.530;2023-06-22T05:16:33;20.20;;;15.80;;
59788;SDS011;47353;51.614;5.530;2023-06-22T05:18:58;17.83;;;15.30;;
59788;SDS011;47353;51.614;5.530;2023-06-22T05:21:25;18.83;;;15.27;;
59788;SDS011;47353;51.614;5.530;2023-06-22T05:23:52;19.45;;;14.93;;
59788;SDS011;47353;51.614;5.530;2023-06-22T05:26:19;19.00;;;15.38;;
59788;SDS011;47353;51.614;5.530;2023-06-22T05:28:45;21.52;;;15.80;;
59788;SDS011;47353;51.614;5.530;2023-06-22T05:31:14;18.80;;;15.15;;
59788;SDS011;47353;51.614;5.530;2023-06-22T05:33:41;18.08;;;15.25;;
59788;SDS011;47353;51.614;5.530;2023-06-22T05:36:06;19.17;;;15.27;;
59788;SDS011;47353;51.614;5.530;2023-06-22T05:38:32;20.45;;;16.25;;
59788;SDS011;47353;51.614;5.530;2023-06-22T05:40:58;23.25;;;17.17;;
59788;SDS011;47353;51.614;5.530;2023-06-22T05:43:23;19.05;;;15.82;;
59788;SDS011;47353;51.614;5.530;2023-06-22T05:45:49;19.52;;;16.92;;
59788;SDS011;47353;51.614;5.530;2023-06-22T05:48:14;22.90;;;17.48;;
59788;SDS011;47353;51.614;5.530;2023-06-22T05:50:39;21.63;;;16.55;;
59788;SDS011;47353;51.614;5.530;2023-06-22T05:53:05;22.80;;;16.85;;
59788;SDS011;47353;51.614;5.530;2023-06-22T05:55:32;21.23;;;16.63;;
59788;SDS011;47353;51.614;5.530;2023-06-22T05:57:57;21.67;;;17.85;;
59788;SDS011;47353;51.614;5.530;2023-06-22T06:00:23;23.52;;;17.58;;
59788;SDS011;47353;51.614;5.530;2023-06-22T06:02:49;20.23;;;17.25;;
59788;SDS011;47353;51.614;5.530;2023-06-22T06:05:14;17.95;;;16.05;;
59788;SDS011;47353;51.614;5.530;2023-06-22T06:07:41;19.33;;;16.98;;
59788;SDS011;47353;51.614;5.530;2023-06-22T06:10:07;19.65;;;16.08;;
59788;SDS011;47353;51.614;5.530;2023-06-22T06:12:33;21.35;;;16.30;;
59788;SDS011;47353;51.614;5.530;2023-06-22T06:14:59;18.70;;;16.67;;
59788;SDS011;47353;51.614;5.530;2023-06-22T06:17:24;19.27;;;16.38;;
59788;SDS011;47353;51.614;5.530;2023-06-22T06:19:49;23.55;;;17.25;;
59788;SDS011;47353;51.614;5.530;2023-06-22T06:22:15;20.00;;;16.50;;
59788;SDS011;47353;51.614;5.530;2023-06-22T06:24:40;19.38;;;17.25;;
59788;SDS011;47353;51.614;5.530;2023-06-22T06:27:06;21.08;;;17.33;;
59788;SDS011;47353;51.614;5.530;2023-06-22T06:29:31;23.90;;;18.35;;
59788;SDS011;47353;51.614;5.530;2023-06-22T06:31:57;19.88;;;17.08;;
59788;SDS011;47353;51.614;5.530;2023-06-22T06:34:23;19.55;;;17.20;;
59788;SDS011;47353;51.614;5.530;2023-06-22T06:36:48;20.48;;;17.00;;
59788;SDS011;47353;51.614;5.530;2023-06-22T06:39:14;18.38;;;16.40;;
59788;SDS011;47353;51.614;5.530;2023-06-22T06:41:41;22.85;;;17.33;;
59788;SDS011;47353;51.614;5.530;2023-06-22T06:44:06;21.70;;;16.63;;
59788;SDS011;47353;51.614;5.530;2023-06-22T06:46:32;19.55;;;17.05;;
59788;SDS011;47353;51.614;5.530;2023-06-22T06:48:57;18.95;;;16.33;;
59788;SDS011;47353;51.614;5.530;2023-06-22T06:51:22;21.77;;;16.92;;
59788;SDS011;47353;51.614;5.530;2023-06-22T06:53:48;18.90;;;15.65;;
59788;SDS011;47353;51.614;5.530;2023-06-22T06:56:13;19.85;;;16.55;;
59788;SDS011;47353;51.614;5.530;2023-06-22T06:58:42;19.73;;;15.43;;
59788;SDS011;47353;51.614;5.530;2023-06-22T07:01:08;21.58;;;16.17;;
59788;SDS011;47353;51.614;5.530;2023-06-22T07:03:33;18.40;;;15.73;;
59788;SDS011;47353;51.614;5.530;2023-06-22T07:05:59;20.70;;;16.45;;
59788;SDS011;47353;51.614;5.530;2023-06-22T07:08:25;18.30;;;15.98;;
59788;SDS011;47353;51.614;5.530;2023-06-22T07:10:51;17.05;;;15.30;;
59788;SDS011;47353;51.614;5.530;2023-06-22T07:13:17;17.25;;;15.45;;
59788;SDS011;47353;51.614;5.530;2023-06-22T07:15:42;17.10;;;15.25;;
59788;SDS011;47353;51.614;5.530;2023-06-22T07:18:08;17.88;;;16.00;;
59788;SDS011;47353;51.614;5.530;2023-06-22T07:20:33;17.23;;;15.25;;
59788;SDS011;47353;51.614;5.530;2023-06-22T07:22:58;20.80;;;16.20;;
59788;SDS011;47353;51.614;5.530;2023-06-22T07:25:24;17.10;;;14.85;;
59788;SDS011;47353;51.614;5.530;2023-06-22T07:30:31;18.52;;;14.00;;
59788;SDS011;47353;51.614;5.530;2023-06-22T07:32:58;15.55;;;13.85;;
59788;SDS011;47353;51.614;5.530;2023-06-22T07:35:28;17.02;;;14.57;;
59788;SDS011;47353;51.614;5.530;2023-06-22T07:37:54;16.13;;;13.85;;
59788;SDS011;47353;51.614;5.530;2023-06-22T07:40:19;16.70;;;13.82;;
59788;SDS011;47353;51.614;5.530;2023-06-22T07:42:45;15.77;;;13.98;;
59788;SDS011;47353;51.614;5.530;2023-06-22T07:45:13;16.60;;;14.30;;
59788;SDS011;47353;51.614;5.530;2023-06-22T07:47:39;18.42;;;14.95;;
59788;SDS011;47353;51.614;5.530;2023-06-22T07:50:05;17.80;;;14.40;;
59788;SDS011;47353;51.614;5.530;2023-06-22T07:52:31;16.15;;;14.45;;
59788;SDS011;47353;51.614;5.530;2023-06-22T07:54:56;15.90;;;14.40;;
59788;SDS011;47353;51.614;5.530;2023-06-22T07:57:22;16.52;;;14.30;;
59788;SDS011;47353;51.614;5.530;2023-06-22T07:59:47;16.80;;;15.00;;
59788;SDS011;47353;51.614;5.530;2023-06-22T08:02:13;17.02;;;14.35;;
59788;SDS011;47353;51.614;5.530;2023-06-22T08:04:38;20.55;;;14.80;;
59788;SDS011;47353;51.614;5.530;2023-06-22T08:07:04;15.55;;;12.30;;
59788;SDS011;47353;51.614;5.530;2023-06-22T08:09:38;14.63;;;12.93;;
59788;SDS011;47353;51.614;5.530;2023-06-22T08:12:11;15.52;;;13.00;;
59788;SDS011;47353;51.614;5.530;2023-06-22T08:14:38;18.77;;;14.20;;
59788;SDS011;47353;51.614;5.530;2023-06-22T08:17:03;15.85;;;13.27;;
59788;SDS011;47353;51.614;5.530;2023-06-22T08:19:29;15.25;;;13.02;;
59788;SDS011;47353;51.614;5.530;2023-06-22T08:21:54;14.15;;;12.73;;
59788;SDS011;47353;51.614;5.530;2023-06-22T08:24:20;15.48;;;12.32;;
59788;SDS011;47353;51.614;5.530;2023-06-22T08:26:45;13.68;;;11.30;;
59788;SDS011;47353;51.614;5.530;2023-06-22T08:29:11;17.95;;;12.02;;
59788;SDS011;47353;51.614;5.530;2023-06-22T08:31:36;17.48;;;11.30;;
59788;SDS011;47353;51.614;5.530;2023-06-22T08:34:01;14.65;;;12.32;;
59788;SDS011;47353;51.614;5.530;2023-06-22T08:36:27;13.27;;;10.93;;
59788;SDS011;47353;51.614;5.530;2023-06-22T08:38:55;14.32;;;11.48;;
59788;SDS011;47353;51.614;5.530;2023-06-22T08:41:26;12.10;;;10.80;;
59788;SDS011;47353;51.614;5.530;2023-06-22T08:43:52;14.73;;;10.85;;
59788;SDS011;47353;51.614;5.530;2023-06-22T08:46:18;16.35;;;11.07;;
59788;SDS011;47353;51.614;5.530;2023-06-22T08:48:48;12.23;;;10.05;;
59788;SDS011;47353;51.614;5.530;2023-06-22T08:51:14;14.48;;;10.27;;
59788;SDS011;47353;51.614;5.530;2023-06-22T08:53:39;12.02;;;10.38;;
59788;SDS011;47353;51.614;5.530;2023-06-22T08:56:04;12.38;;;9.98;;
59788;SDS011;47353;51.614;5.530;2023-06-22T08:58:30;10.65;;;9.50;;
59788;SDS011;47353;51.614;5.530;2023-06-22T09:00:55;10.48;;;9.38;;
59788;SDS011;47353;51.614;5.530;2023-06-22T09:03:20;11.10;;;9.70;;
59788;SDS011;47353;51.614;5.530;2023-06-22T09:05:46;10.35;;;8.80;;
59788;SDS011;47353;51.614;5.530;2023-06-22T09:08:11;12.65;;;9.00;;
59788;SDS011;47353;51.614;5.530;2023-06-22T09:10:37;11.07;;;8.27;;
59788;SDS011;47353;51.614;5.530;2023-06-22T09:13:02;9.50;;;8.52;;
59788;SDS011;47353;51.614;5.530;2023-06-22T09:15:27;10.25;;;9.07;;
59788;SDS011;47353;51.614;5.530;2023-06-22T09:17:53;14.25;;;10.60;;
59788;SDS011;47353;51.614;5.530;2023-06-22T09:20:19;10.20;;;9.13;;
59788;SDS011;47353;51.614;5.530;2023-06-22T09:22:45;9.73;;;8.73;;
59788;SDS011;47353;51.614;5.530;2023-06-22T09:25:10;12.00;;;10.10;;
59788;SDS011;47353;51.614;5.530;2023-06-22T09:27:36;11.48;;;9.38;;
59788;SDS011;47353;51.614;5.530;2023-06-22T09:30:01;11.57;;;9.68;;
59788;SDS011;47353;51.614;5.530;2023-06-22T09:32:28;11.60;;;8.45;;
59788;SDS011;47353;51.614;5.530;2023-06-22T09:34:53;12.63;;;7.75;;
59788;SDS011;47353;51.614;5.530;2023-06-22T09:37:19;13.07;;;8.88;;
59788;SDS011;47353;51.614;5.530;2023-06-22T09:39:44;11.38;;;9.95;;
59788;SDS011;47353;51.614;5.530;2023-06-22T09:42:10;10.35;;;9.25;;
59788;SDS011;47353;51.614;5.530;2023-06-22T09:44:36;15.95;;;9.13;;
59788;SDS011;47353;51.614;5.530;2023-06-22T09:47:01;12.25;;;9.02;;
59788;SDS011;47353;51.614;5.530;2023-06-22T09:49:27;11.30;;;9.27;;
59788;SDS011;47353;51.614;5.530;2023-06-22T09:51:52;10.52;;;9.43;;
59788;SDS011;47353;51.614;5.530;2023-06-22T09:54:18;11.23;;;9.85;;
59788;SDS011;47353;51.614;5.530;2023-06-22T09:56:43;11.35;;;10.02;;
59788;SDS011;47353;51.614;5.530;2023-06-22T09:59:09;11.98;;;10.75;;
59788;SDS011;47353;51.614;5.530;2023-06-22T10:01:34;13.15;;;9.70;;
59788;SDS011;47353;51.614;5.530;2023-06-22T10:03:59;11.52;;;9.25;;
59788;SDS011;47353;51.614;5.530;2023-06-22T10:06:25;14.05;;;10.50;;
59788;SDS011;47353;51.614;5.530;2023-06-22T10:08:51;11.57;;;9.88;;
59788;SDS011;47353;51.614;5.530;2023-06-22T10:11:17;12.55;;;9.98;;
59788;SDS011;47353;51.614;5.530;2023-06-22T10:13:42;12.93;;;10.52;;
59788;SDS011;47353;51.614;5.530;2023-06-22T10:16:07;13.07;;;10.27;;
59788;SDS011;47353;51.614;5.530;2023-06-22T10:18:33;13.65;;;10.40;;
59788;SDS011;47353;51.614;5.530;2023-06-22T10:20:58;13.88;;;10.90;;
59788;SDS011;47353;51.614;5.530;2023-06-22T10:23:24;13.10;;;10.75;;
59788;SDS011;47353;51.614;5.530;2023-06-22T10:25:50;12.35;;;10.98;;
59788;SDS011;47353;51.614;5.530;2023-06-22T10:28:15;13.73;;;11.15;;
59788;SDS011;47353;51.614;5.530;2023-06-22T10:30:41;13.73;;;10.73;;
59788;SDS011;47353;51.614;5.530;2023-06-22T10:33:07;18.48;;;11.50;;
59788;SDS011;47353;51.614;5.530;2023-06-22T10:35:33;15.57;;;12.20;;
59788;SDS011;47353;51.614;5.530;2023-06-22T10:37:58;14.88;;;12.05;;
59788;SDS011;47353;51.614;5.530;2023-06-22T10:40:24;15.90;;;11.52;;
59788;SDS011;47353;51.614;5.530;2023-06-22T10:42:50;13.75;;;12.45;;
59788;SDS011;47353;51.614;5.530;2023-06-22T10:45:15;15.02;;;10.82;;
59788;SDS011;47353;51.614;5.530;2023-06-22T10:47:41;11.63;;;10.32;;
59788;SDS011;47353;51.614;5.530;2023-06-22T10:50:09;12.15;;;10.48;;
59788;SDS011;47353;51.614;5.530;2023-06-22T10:52:35;13.00;;;10.95;;
59788;SDS011;47353;51.614;5.530;2023-06-22T10:55:01;11.07;;;9.95;;
59788;SDS011;47353;51.614;5.530;2023-06-22T10:57:26;13.15;;;11.73;;
59788;SDS011;47353;51.614;5.530;2023-06-22T10:59:51;12.35;;;11.05;;
59788;SDS011;47353;51.614;5.530;2023-06-22T11:02:17;13.48;;;12.05;;
59788;SDS011;47353;51.614;5.530;2023-06-22T11:04:42;15.18;;;13.27;;
59788;SDS011;47353;51.614;5.530;2023-06-22T11:07:08;14.10;;;12.70;;
59788;SDS011;47353;51.614;5.530;2023-06-22T11:09:34;20.30;;;13.80;;
59788;SDS011;47353;51.614;5.530;2023-06-22T11:11:59;15.48;;;13.90;;
59788;SDS011;47353;51.614;5.530;2023-06-22T11:14:25;15.95;;;14.25;;
59788;SDS011;47353;51.614;5.530;2023-06-22T11:16:50;17.02;;;14.50;;
59788;SDS011;47353;51.614;5.530;2023-06-22T11:19:16;16.52;;;14.75;;
59788;SDS011;47353;51.614;5.530;2023-06-22T11:21:41;20.73;;;15.80;;
59788;SDS011;47353;51.614;5.530;2023-06-22T11:24:07;19.88;;;15.73;;
59788;SDS011;47353;51.614;5.530;2023-06-22T11:26:32;18.73;;;16.40;;
59788;SDS011;47353;51.614;5.530;2023-06-22T11:28:58;20.08;;;17.10;;
59788;SDS011;47353;51.614;5.530;2023-06-22T11:31:24;22.10;;;17.70;;
59788;SDS011;47353;51.614;5.530;2023-06-22T11:33:49;21.00;;;18.08;;
59788;SDS011;47353;51.614;5.530;2023-06-22T11:36:15;21.73;;;18.42;;
59788;SDS011;47353;51.614;5.530;2023-06-22T11:38:41;24.13;;;19.08;;
59788;SDS011;47353;51.614;5.530;2023-06-22T11:41:07;20.75;;;18.52;;
59788;SDS011;47353;51.614;5.530;2023-06-22T11:43:33;22.60;;;20.15;;
59788;SDS011;47353;51.614;5.530;2023-06-22T11:45:59;22.85;;;19.65;;
59788;SDS011;47353;51.614;5.530;2023-06-22T11:48:26;23.83;;;19.95;;
59788;SDS011;47353;51.614;5.530;2023-06-22T11:50:52;25.02;;;20.55;;
59788;SDS011;47353;51.614;5.530;2023-06-22T11:53:17;25.83;;;20.92;;
59788;SDS011;47353;51.614;5.530;2023-06-22T11:55:43;27.45;;;21.67;;
59788;SDS011;47353;51.614;5.530;2023-06-22T11:58:09;26.75;;;21.98;;
59788;SDS011;47353;51.614;5.530;2023-06-22T12:00:35;28.45;;;22.90;;
59788;SDS011;47353;51.614;5.530;2023-06-22T12:03:00;31.13;;;25.17;;
59788;SDS011;47353;51.614;5.530;2023-06-22T12:05:26;25.65;;;22.60;;
59788;SDS011;47353;51.614;5.530;2023-06-22T12:07:52;26.33;;;20.75;;
59788;SDS011;47353;51.614;5.530;2023-06-22T12:10:18;24.92;;;19.98;;
59788;SDS011;47353;51.614;5.530;2023-06-22T12:12:43;23.77;;;20.30;;
59788;SDS011;47353;51.614;5.530;2023-06-22T12:15:09;25.13;;;20.38;;
59788;SDS011;47353;51.614;5.530;2023-06-22T12:17:35;21.92;;;19.23;;
59788;SDS011;47353;51.614;5.530;2023-06-22T12:20:01;25.17;;;19.83;;
59788;SDS011;47353;51.614;5.530;2023-06-22T12:22:30;23.13;;;20.35;;
59788;SDS011;47353;51.614;5.530;2023-06-22T12:24:59;22.77;;;20.25;;
59788;SDS011;47353;51.614;5.530;2023-06-22T12:27:24;22.95;;;19.90;;
59788;SDS011;47353;51.614;5.530;2023-06-22T12:29:50;22.95;;;20.65;;
59788;SDS011;47353;51.614;5.530;2023-06-22T12:32:16;22.25;;;19.40;;
59788;SDS011;47353;51.614;5.530;2023-06-22T12:34:42;22.67;;;20.25;;
59788;SDS011;47353;51.614;5.530;2023-06-22T12:37:08;21.50;;;19.23;;
59788;SDS011;47353;51.614;5.530;2023-06-22T12:39:33;23.33;;;19.55;;
59788;SDS011;47353;51.614;5.530;2023-06-22T12:41:59;22.10;;;19.63;;
59788;SDS011;47353;51.614;5.530;2023-06-22T12:44:24;23.58;;;19.33;;
59788;SDS011;47353;51.614;5.530;2023-06-22T12:46:50;21.77;;;19.42;;
59788;SDS011;47353;51.614;5.530;2023-06-22T12:49:15;25.08;;;19.75;;
59788;SDS011;47353;51.614;5.530;2023-06-22T12:51:41;21.65;;;19.40;;
59788;SDS011;47353;51.614;5.530;2023-06-22T12:54:07;21.90;;;18.83;;
59788;SDS011;47353;51.614;5.530;2023-06-22T12:56:33;23.23;;;20.58;;
59788;SDS011;47353;51.614;5.530;2023-06-22T12:58:59;22.67;;;19.67;;
59788;SDS011;47353;51.614;5.530;2023-06-22T13:01:27;20.50;;;18.27;;
59788;SDS011;47353;51.614;5.530;2023-06-22T13:03:55;21.35;;;19.20;;
59788;SDS011;47353;51.614;5.530;2023-06-22T13:06:21;21.15;;;18.27;;
59788;SDS011;47353;51.614;5.530;2023-06-22T13:08:46;19.30;;;17.08;;
59788;SDS011;47353;51.614;5.530;2023-06-22T13:11:12;19.92;;;17.90;;
59788;SDS011;47353;51.614;5.530;2023-06-22T13:13:38;20.15;;;17.88;;
59788;SDS011;47353;51.614;5.530;2023-06-22T13:16:03;20.42;;;17.30;;
59788;SDS011;47353;51.614;5.530;2023-06-22T13:18:29;19.00;;;16.75;;
59788;SDS011;47353;51.614;5.530;2023-06-22T13:20:54;18.33;;;16.42;;
59788;SDS011;47353;51.614;5.530;2023-06-22T13:23:20;18.52;;;16.52;;
59788;SDS011;47353;51.614;5.530;2023-06-22T13:25:46;20.88;;;16.88;;
59788;SDS011;47353;51.614;5.530;2023-06-22T13:28:12;20.02;;;16.48;;
59788;SDS011;47353;51.614;5.530;2023-06-22T13:30:39;18.30;;;16.40;;
59788;SDS011;47353;51.614;5.530;2023-06-22T13:33:05;18.98;;;16.92;;
59788;SDS011;47353;51.614;5.530;2023-06-22T13:35:31;20.52;;;16.83;;
59788;SDS011;47353;51.614;5.530;2023-06-22T13:37:56;19.52;;;17.42;;
59788;SDS011;47353;51.614;5.530;2023-06-22T13:40:22;18.95;;;17.05;;
59788;SDS011;47353;51.614;5.530;2023-06-22T13:42:47;19.13;;;17.10;;
59788;SDS011;47353;51.614;5.530;2023-06-22T13:45:13;18.88;;;16.88;;
59788;SDS011;47353;51.614;5.530;2023-06-22T13:47:38;18.90;;;17.10;;
59788;SDS011;47353;51.614;5.530;2023-06-22T13:50:04;18.17;;;16.38;;
59788;SDS011;47353;51.614;5.530;2023-06-22T13:52:30;19.33;;;16.95;;
59788;SDS011;47353;51.614;5.530;2023-06-22T13:54:56;19.25;;;17.25;;
59788;SDS011;47353;51.614;5.530;2023-06-22T13:57:21;18.80;;;16.90;;
59788;SDS011;47353;51.614;5.530;2023-06-22T13:59:46;18.90;;;17.10;;
59788;SDS011;47353;51.614;5.530;2023-06-22T14:02:12;20.15;;;18.05;;
59788;SDS011;47353;51.614;5.530;2023-06-22T14:04:37;18.50;;;16.70;;
59788;SDS011;47353;51.614;5.530;2023-06-22T14:07:03;20.33;;;18.17;;
59788;SDS011;47353;51.614;5.530;2023-06-22T14:09:28;20.35;;;18.02;;
59788;SDS011;47353;51.614;5.530;2023-06-22T14:11:54;20.27;;;18.17;;
59788;SDS011;47353;51.614;5.530;2023-06-22T14:14:20;19.95;;;17.95;;
59788;SDS011;47353;51.614;5.530;2023-06-22T14:16:46;20.65;;;18.40;;
59788;SDS011;47353;51.614;5.530;2023-06-22T14:19:12;21.48;;;19.02;;
59788;SDS011;47353;51.614;5.530;2023-06-22T14:21:38;21.42;;;19.13;;
59788;SDS011;47353;51.614;5.530;2023-06-22T14:24:03;21.33;;;18.88;;
59788;SDS011;47353;51.614;5.530;2023-06-22T14:26:29;21.10;;;18.92;;
59788;SDS011;47353;51.614;5.530;2023-06-22T14:28:54;21.27;;;19.08;;
59788;SDS011;47353;51.614;5.530;2023-06-22T14:31:21;22.13;;;19.02;;
59788;SDS011;47353;51.614;5.530;2023-06-22T14:33:47;23.48;;;21.08;;
59788;SDS011;47353;51.614;5.530;2023-06-22T14:36:14;22.02;;;19.90;;